sensor_id;sensor_type;location;lat;lon;timestamp;P1;durP1;ratioP1;P2;durP2;ratioP2
6852;SDS011;3465;42.144;24.722;2023-05-14T00:01:44;7.17;;;2.87;;
6852;SDS011;3465;42.144;24.722;2023-05-14T00:04:10;7.50;;;2.90;;
6852;SDS011;3465;42.144;24.722;2023-05-14T00:06:36;5.63;;;3.10;;
6852;SDS011;3465;42.144;24.722;2023-05-14T00:09:01;7.73;;;3.57;;
6852;SDS011;3465;42.144;24.722;2023-05-14T00:11:28;4.73;;;2.70;;
6852;SDS011;3465;42.144;24.722;2023-05-14T00:13:53;3.50;;;2.63;;
6852;SDS011;3465;42.144;24.722;2023-05-14T00:16:19;5.73;;;2.83;;
6852;SDS011;3465;42.144;24.722;2023-05-14T00:18:44;6.03;;;2.90;;
6852;SDS011;3465;42.144;24.722;2023-05-14T00:21:10;4.37;;;2.63;;
6852;SDS011;3465;42.144;24.722;2023-05-14T00:23:35;5.10;;;3.07;;
6852;SDS011;3465;42.144;24.722;2023-05-14T00:26:01;7.73;;;3.17;;
6852;SDS011;3465;42.144;24.722;2023-05-14T00:28:26;6.47;;;2.77;;
6852;SDS011;3465;42.144;24.722;2023-05-14T00:30:51;3.30;;;2.73;;
6852;SDS011;3465;42.144;24.722;2023-05-14T00:33:17;6.00;;;2.70;;
6852;SDS011;3465;42.144;24.722;2023-05-14T00:35:42;3.83;;;2.53;;
6852;SDS011;3465;42.144;24.722;2023-05-14T00:38:08;4.33;;;2.70;;
6852;SDS011;3465;42.144;24.722;2023-05-14T00:40:34;5.17;;;3.03;;
6852;SDS011;3465;42.144;24.722;2023-05-14T00:42:59;6.87;;;2.60;;
6852;SDS011;3465;42.144;24.722;2023-05-14T00:45:25;3.90;;;2.70;;
6852;SDS011;3465;42.144;24.722;2023-05-14T00:47:50;6.23;;;2.83;;
6852;SDS011;3465;42.144;24.722;2023-05-14T00:50:17;5.33;;;2.87;;
6852;SDS011;3465;42.144;24.722;2023-05-14T00:52:43;5.30;;;2.73;;
6852;SDS011;3465;42.144;24.722;2023-05-14T00:55:08;4.67;;;2.90;;
6852;SDS011;3465;42.144;24.722;2023-05-14T00:57:36;7.43;;;3.37;;
6852;SDS011;3465;42.144;24.722;2023-05-14T01:00:02;7.30;;;3.03;;
6852;SDS011;3465;42.144;24.722;2023-05-14T01:02:30;4.70;;;2.97;;
6852;SDS011;3465;42.144;24.722;2023-05-14T01:04:56;5.30;;;2.53;;
6852;SDS011;3465;42.144;24.722;2023-05-14T01:07:28;3.90;;;2.47;;
6852;SDS011;3465;42.144;24.722;2023-05-14T01:09:58;6.37;;;2.93;;
6852;SDS011;3465;42.144;24.722;2023-05-14T01:17:42;4.53;;;2.90;;
6852;SDS011;3465;42.144;24.722;2023-05-14T01:20:10;14.17;;;3.20;;
6852;SDS011;3465;42.144;24.722;2023-05-14T01:22:36;3.93;;;2.60;;
6852;SDS011;3465;42.144;24.722;2023-05-14T01:25:02;7.20;;;3.17;;
6852;SDS011;3465;42.144;24.722;2023-05-14T01:27:36;4.93;;;3.10;;
6852;SDS011;3465;42.144;24.722;2023-05-14T01:30:08;4.27;;;3.10;;
6852;SDS011;3465;42.144;24.722;2023-05-14T01:32:43;4.83;;;2.90;;
6852;SDS011;3465;42.144;24.722;2023-05-14T01:35:15;6.30;;;2.77;;
6852;SDS011;3465;42.144;24.722;2023-05-14T01:37:41;6.00;;;3.40;;
6852;SDS011;3465;42.144;24.722;2023-05-14T01:40:08;6.93;;;3.00;;
6852;SDS011;3465;42.144;24.722;2023-05-14T01:42:35;9.03;;;3.73;;
6852;SDS011;3465;42.144;24.722;2023-05-14T01:45:01;7.70;;;3.20;;
6852;SDS011;3465;42.144;24.722;2023-05-14T01:47:27;7.43;;;3.23;;
6852;SDS011;3465;42.144;24.722;2023-05-14T01:49:52;4.47;;;3.30;;
6852;SDS011;3465;42.144;24.722;2023-05-14T01:52:18;5.77;;;3.20;;
6852;SDS011;3465;42.144;24.722;2023-05-14T01:54:45;6.67;;;3.23;;
6852;SDS011;3465;42.144;24.722;2023-05-14T01:57:11;4.63;;;3.00;;
6852;SDS011;3465;42.144;24.722;2023-05-14T01:59:36;6.97;;;3.13;;
6852;SDS011;3465;42.144;24.722;2023-05-14T02:02:02;7.53;;;3.40;;
6852;SDS011;3465;42.144;24.722;2023-05-14T02:04:27;4.53;;;3.63;;
6852;SDS011;3465;42.144;24.722;2023-05-14T02:06:53;6.90;;;3.30;;
6852;SDS011;3465;42.144;24.722;2023-05-14T02:09:18;7.77;;;3.20;;
6852;SDS011;3465;42.144;24.722;2023-05-14T02:11:43;4.87;;;3.13;;
6852;SDS011;3465;42.144;24.722;2023-05-14T02:14:09;7.30;;;3.30;;
6852;SDS011;3465;42.144;24.722;2023-05-14T02:16:34;7.90;;;3.33;;
6852;SDS011;3465;42.144;24.722;2023-05-14T02:19:00;6.43;;;3.10;;
6852;SDS011;3465;42.144;24.722;2023-05-14T02:21:25;5.80;;;2.80;;
6852;SDS011;3465;42.144;24.722;2023-05-14T02:23:51;4.27;;;3.00;;
6852;SDS011;3465;42.144;24.722;2023-05-14T02:26:16;6.47;;;2.80;;
6852;SDS011;3465;42.144;24.722;2023-05-14T02:28:41;5.97;;;3.30;;
6852;SDS011;3465;42.144;24.722;2023-05-14T02:31:07;8.17;;;3.20;;
6852;SDS011;3465;42.144;24.722;2023-05-14T02:33:32;4.30;;;3.10;;
6852;SDS011;3465;42.144;24.722;2023-05-14T02:35:57;5.30;;;3.00;;
6852;SDS011;3465;42.144;24.722;2023-05-14T02:38:23;5.23;;;3.27;;
6852;SDS011;3465;42.144;24.722;2023-05-14T02:40:50;7.20;;;3.40;;
6852;SDS011;3465;42.144;24.722;2023-05-14T02:43:15;7.53;;;3.87;;
6852;SDS011;3465;42.144;24.722;2023-05-14T02:45:41;6.00;;;3.87;;
6852;SDS011;3465;42.144;24.722;2023-05-14T02:48:06;7.13;;;3.70;;
6852;SDS011;3465;42.144;24.722;2023-05-14T02:50:31;10.53;;;4.17;;
6852;SDS011;3465;42.144;24.722;2023-05-14T02:52:57;12.67;;;3.87;;
6852;SDS011;3465;42.144;24.722;2023-05-14T02:55:22;7.67;;;3.60;;
6852;SDS011;3465;42.144;24.722;2023-05-14T02:57:50;5.67;;;3.30;;
6852;SDS011;3465;42.144;24.722;2023-05-14T03:00:17;9.40;;;3.70;;
6852;SDS011;3465;42.144;24.722;2023-05-14T03:02:43;7.03;;;3.97;;
6852;SDS011;3465;42.144;24.722;2023-05-14T03:05:08;7.23;;;3.63;;
6852;SDS011;3465;42.144;24.722;2023-05-14T03:07:34;8.03;;;3.83;;
6852;SDS011;3465;42.144;24.722;2023-05-14T03:09:59;9.67;;;4.37;;
6852;SDS011;3465;42.144;24.722;2023-05-14T03:12:25;8.00;;;4.20;;
6852;SDS011;3465;42.144;24.722;2023-05-14T03:14:50;7.13;;;3.53;;
6852;SDS011;3465;42.144;24.722;2023-05-14T03:17:16;7.10;;;3.43;;
6852;SDS011;3465;42.144;24.722;2023-05-14T03:19:41;7.43;;;3.73;;
6852;SDS011;3465;42.144;24.722;2023-05-14T03:22:06;6.23;;;3.07;;
6852;SDS011;3465;42.144;24.722;2023-05-14T03:24:32;5.83;;;3.00;;
6852;SDS011;3465;42.144;24.722;2023-05-14T03:26:58;5.17;;;3.10;;
6852;SDS011;3465;42.144;24.722;2023-05-14T03:29:23;12.67;;;3.50;;
6852;SDS011;3465;42.144;24.722;2023-05-14T03:31:49;5.83;;;3.30;;
6852;SDS011;3465;42.144;24.722;2023-05-14T03:34:14;9.60;;;3.60;;
6852;SDS011;3465;42.144;24.722;2023-05-14T03:36:40;5.10;;;3.50;;
6852;SDS011;3465;42.144;24.722;2023-05-14T03:39:05;7.30;;;3.10;;
6852;SDS011;3465;42.144;24.722;2023-05-14T03:41:31;7.67;;;3.30;;
6852;SDS011;3465;42.144;24.722;2023-05-14T03:43:57;5.70;;;3.37;;
6852;SDS011;3465;42.144;24.722;2023-05-14T03:46:22;5.57;;;3.30;;
6852;SDS011;3465;42.144;24.722;2023-05-14T03:48:48;6.53;;;3.50;;
6852;SDS011;3465;42.144;24.722;2023-05-14T03:51:13;7.67;;;3.60;;
6852;SDS011;3465;42.144;24.722;2023-05-14T03:53:39;6.50;;;3.57;;
6852;SDS011;3465;42.144;24.722;2023-05-14T03:56:05;8.37;;;3.60;;
6852;SDS011;3465;42.144;24.722;2023-05-14T03:58:30;13.80;;;3.63;;
6852;SDS011;3465;42.144;24.722;2023-05-14T04:00:56;17.47;;;3.93;;
6852;SDS011;3465;42.144;24.722;2023-05-14T04:03:21;6.50;;;3.33;;
6852;SDS011;3465;42.144;24.722;2023-05-14T04:05:46;8.30;;;3.63;;
6852;SDS011;3465;42.144;24.722;2023-05-14T04:08:12;6.27;;;3.40;;
6852;SDS011;3465;42.144;24.722;2023-05-14T04:10:38;9.27;;;3.80;;
6852;SDS011;3465;42.144;24.722;2023-05-14T04:13:03;6.43;;;4.10;;
6852;SDS011;3465;42.144;24.722;2023-05-14T04:15:28;5.37;;;3.70;;
6852;SDS011;3465;42.144;24.722;2023-05-14T04:17:54;6.10;;;3.70;;
6852;SDS011;3465;42.144;24.722;2023-05-14T04:20:19;12.87;;;4.43;;
6852;SDS011;3465;42.144;24.722;2023-05-14T04:22:45;6.63;;;4.10;;
6852;SDS011;3465;42.144;24.722;2023-05-14T04:25:10;8.43;;;4.03;;
6852;SDS011;3465;42.144;24.722;2023-05-14T04:27:35;7.70;;;3.53;;
6852;SDS011;3465;42.144;24.722;2023-05-14T04:30:01;7.63;;;3.63;;
6852;SDS011;3465;42.144;24.722;2023-05-14T04:32:27;10.63;;;3.50;;
6852;SDS011;3465;42.144;24.722;2023-05-14T04:34:52;6.07;;;3.77;;
6852;SDS011;3465;42.144;24.722;2023-05-14T04:37:17;6.10;;;3.70;;
6852;SDS011;3465;42.144;24.722;2023-05-14T04:39:43;8.17;;;3.67;;
6852;SDS011;3465;42.144;24.722;2023-05-14T04:42:08;5.43;;;3.23;;
6852;SDS011;3465;42.144;24.722;2023-05-14T04:44:34;6.23;;;3.53;;
6852;SDS011;3465;42.144;24.722;2023-05-14T04:47:00;9.93;;;3.63;;
6852;SDS011;3465;42.144;24.722;2023-05-14T04:49:26;6.67;;;3.63;;
6852;SDS011;3465;42.144;24.722;2023-05-14T04:51:52;5.73;;;4.07;;
6852;SDS011;3465;42.144;24.722;2023-05-14T04:54:18;16.00;;;3.90;;
6852;SDS011;3465;42.144;24.722;2023-05-14T04:56:43;7.03;;;3.90;;
6852;SDS011;3465;42.144;24.722;2023-05-14T04:59:09;4.97;;;3.70;;
6852;SDS011;3465;42.144;24.722;2023-05-14T05:01:34;7.67;;;4.40;;
6852;SDS011;3465;42.144;24.722;2023-05-14T05:04:00;6.27;;;4.17;;
6852;SDS011;3465;42.144;24.722;2023-05-14T05:06:25;7.17;;;3.87;;
6852;SDS011;3465;42.144;24.722;2023-05-14T05:08:50;7.27;;;4.30;;
6852;SDS011;3465;42.144;24.722;2023-05-14T05:11:16;6.73;;;3.73;;
6852;SDS011;3465;42.144;24.722;2023-05-14T05:13:41;7.07;;;4.20;;
6852;SDS011;3465;42.144;24.722;2023-05-14T05:16:06;7.93;;;4.40;;
6852;SDS011;3465;42.144;24.722;2023-05-14T05:18:32;8.53;;;3.77;;
6852;SDS011;3465;42.144;24.722;2023-05-14T05:20:57;5.97;;;4.13;;
6852;SDS011;3465;42.144;24.722;2023-05-14T05:23:23;6.13;;;4.00;;
6852;SDS011;3465;42.144;24.722;2023-05-14T05:25:48;8.77;;;4.13;;
6852;SDS011;3465;42.144;24.722;2023-05-14T05:28:14;6.20;;;3.83;;
6852;SDS011;3465;42.144;24.722;2023-05-14T05:30:40;9.70;;;4.57;;
6852;SDS011;3465;42.144;24.722;2023-05-14T05:33:06;7.30;;;4.60;;
6852;SDS011;3465;42.144;24.722;2023-05-14T05:35:31;7.30;;;4.30;;
6852;SDS011;3465;42.144;24.722;2023-05-14T05:37:57;9.30;;;4.23;;
6852;SDS011;3465;42.144;24.722;2023-05-14T05:40:22;7.47;;;4.33;;
6852;SDS011;3465;42.144;24.722;2023-05-14T05:42:47;9.53;;;4.30;;
6852;SDS011;3465;42.144;24.722;2023-05-14T05:45:13;8.97;;;4.40;;
6852;SDS011;3465;42.144;24.722;2023-05-14T05:47:38;7.93;;;4.60;;
6852;SDS011;3465;42.144;24.722;2023-05-14T05:50:04;10.87;;;5.23;;
6852;SDS011;3465;42.144;24.722;2023-05-14T05:52:30;8.97;;;4.60;;
6852;SDS011;3465;42.144;24.722;2023-05-14T05:54:55;8.93;;;4.20;;
6852;SDS011;3465;42.144;24.722;2023-05-14T05:57:21;10.67;;;4.67;;
6852;SDS011;3465;42.144;24.722;2023-05-14T05:59:47;8.93;;;4.80;;
6852;SDS011;3465;42.144;24.722;2023-05-14T06:02:13;10.50;;;4.50;;
6852;SDS011;3465;42.144;24.722;2023-05-14T06:04:38;11.17;;;4.47;;
6852;SDS011;3465;42.144;24.722;2023-05-14T06:07:04;7.87;;;4.33;;
6852;SDS011;3465;42.144;24.722;2023-05-14T06:09:29;11.57;;;4.70;;
6852;SDS011;3465;42.144;24.722;2023-05-14T06:11:55;9.07;;;4.10;;
6852;SDS011;3465;42.144;24.722;2023-05-14T06:14:20;8.33;;;4.20;;
6852;SDS011;3465;42.144;24.722;2023-05-14T06:16:45;6.60;;;4.37;;
6852;SDS011;3465;42.144;24.722;2023-05-14T06:19:11;6.93;;;4.27;;
6852;SDS011;3465;42.144;24.722;2023-05-14T06:21:36;8.00;;;4.23;;
6852;SDS011;3465;42.144;24.722;2023-05-14T06:24:02;6.60;;;4.20;;
6852;SDS011;3465;42.144;24.722;2023-05-14T06:26:28;5.70;;;4.00;;
6852;SDS011;3465;42.144;24.722;2023-05-14T06:28:53;8.83;;;4.00;;
6852;SDS011;3465;42.144;24.722;2023-05-14T06:31:18;10.57;;;4.50;;
6852;SDS011;3465;42.144;24.722;2023-05-14T06:33:44;7.20;;;4.27;;
6852;SDS011;3465;42.144;24.722;2023-05-14T06:36:10;9.57;;;4.53;;
6852;SDS011;3465;42.144;24.722;2023-05-14T06:38:35;9.93;;;4.70;;
6852;SDS011;3465;42.144;24.722;2023-05-14T06:41:01;10.10;;;5.10;;
6852;SDS011;3465;42.144;24.722;2023-05-14T06:43:27;9.93;;;4.77;;
6852;SDS011;3465;42.144;24.722;2023-05-14T06:45:52;5.97;;;4.53;;
6852;SDS011;3465;42.144;24.722;2023-05-14T06:48:18;9.70;;;4.40;;
6852;SDS011;3465;42.144;24.722;2023-05-14T06:50:44;12.60;;;5.03;;
6852;SDS011;3465;42.144;24.722;2023-05-14T06:53:10;10.90;;;5.17;;
6852;SDS011;3465;42.144;24.722;2023-05-14T06:55:35;11.87;;;5.07;;
6852;SDS011;3465;42.144;24.722;2023-05-14T06:58:00;12.90;;;5.40;;
6852;SDS011;3465;42.144;24.722;2023-05-14T07:00:26;11.83;;;5.53;;
6852;SDS011;3465;42.144;24.722;2023-05-14T07:02:52;11.23;;;5.23;;
6852;SDS011;3465;42.144;24.722;2023-05-14T07:05:17;14.03;;;6.00;;
6852;SDS011;3465;42.144;24.722;2023-05-14T07:07:43;11.27;;;5.57;;
6852;SDS011;3465;42.144;24.722;2023-05-14T07:10:08;12.23;;;5.70;;
6852;SDS011;3465;42.144;24.722;2023-05-14T07:12:34;10.57;;;5.63;;
6852;SDS011;3465;42.144;24.722;2023-05-14T07:14:59;13.83;;;6.40;;
6852;SDS011;3465;42.144;24.722;2023-05-14T07:17:24;14.03;;;6.37;;
6852;SDS011;3465;42.144;24.722;2023-05-14T07:19:50;11.30;;;6.10;;
6852;SDS011;3465;42.144;24.722;2023-05-14T07:22:15;10.83;;;6.23;;
6852;SDS011;3465;42.144;24.722;2023-05-14T07:24:41;9.37;;;6.43;;
6852;SDS011;3465;42.144;24.722;2023-05-14T07:27:06;8.53;;;5.90;;
6852;SDS011;3465;42.144;24.722;2023-05-14T07:29:32;9.67;;;6.27;;
6852;SDS011;3465;42.144;24.722;2023-05-14T07:31:59;17.23;;;7.37;;
6852;SDS011;3465;42.144;24.722;2023-05-14T07:34:25;10.07;;;6.30;;
6852;SDS011;3465;42.144;24.722;2023-05-14T07:36:51;12.77;;;6.60;;
6852;SDS011;3465;42.144;24.722;2023-05-14T07:39:17;10.57;;;6.20;;
6852;SDS011;3465;42.144;24.722;2023-05-14T07:41:42;11.53;;;6.30;;
6852;SDS011;3465;42.144;24.722;2023-05-14T07:44:08;17.67;;;7.53;;
6852;SDS011;3465;42.144;24.722;2023-05-14T07:46:33;17.50;;;7.70;;
6852;SDS011;3465;42.144;24.722;2023-05-14T07:48:59;17.23;;;7.43;;
6852;SDS011;3465;42.144;24.722;2023-05-14T07:51:24;16.70;;;7.80;;
6852;SDS011;3465;42.144;24.722;2023-05-14T07:53:52;11.60;;;6.93;;
6852;SDS011;3465;42.144;24.722;2023-05-14T07:56:19;13.87;;;7.20;;
6852;SDS011;3465;42.144;24.722;2023-05-14T07:58:45;13.93;;;7.67;;
6852;SDS011;3465;42.144;24.722;2023-05-14T08:01:10;13.80;;;7.00;;
6852;SDS011;3465;42.144;24.722;2023-05-14T08:03:36;16.77;;;7.50;;
6852;SDS011;3465;42.144;24.722;2023-05-14T08:06:02;15.23;;;7.20;;
6852;SDS011;3465;42.144;24.722;2023-05-14T08:08:28;14.47;;;7.37;;
6852;SDS011;3465;42.144;24.722;2023-05-14T08:10:54;14.70;;;7.57;;
6852;SDS011;3465;42.144;24.722;2023-05-14T08:13:19;12.83;;;7.97;;
6852;SDS011;3465;42.144;24.722;2023-05-14T08:15:45;17.97;;;9.33;;
6852;SDS011;3465;42.144;24.722;2023-05-14T08:18:10;16.13;;;8.53;;
6852;SDS011;3465;42.144;24.722;2023-05-14T08:20:35;14.57;;;8.37;;
6852;SDS011;3465;42.144;24.722;2023-05-14T08:23:01;14.53;;;8.33;;
6852;SDS011;3465;42.144;24.722;2023-05-14T08:25:26;16.10;;;8.03;;
6852;SDS011;3465;42.144;24.722;2023-05-14T08:27:51;12.37;;;7.90;;
6852;SDS011;3465;42.144;24.722;2023-05-14T08:30:18;12.77;;;7.43;;
6852;SDS011;3465;42.144;24.722;2023-05-14T08:32:44;11.03;;;6.83;;
6852;SDS011;3465;42.144;24.722;2023-05-14T08:35:09;13.17;;;7.60;;
6852;SDS011;3465;42.144;24.722;2023-05-14T08:37:35;13.37;;;7.53;;
6852;SDS011;3465;42.144;24.722;2023-05-14T08:40:00;9.83;;;6.80;;
6852;SDS011;3465;42.144;24.722;2023-05-14T08:42:26;10.33;;;7.50;;
6852;SDS011;3465;42.144;24.722;2023-05-14T08:44:56;10.03;;;7.10;;
6852;SDS011;3465;42.144;24.722;2023-05-14T08:47:28;15.33;;;8.13;;
6852;SDS011;3465;42.144;24.722;2023-05-14T08:52:23;16.43;;;8.17;;
6852;SDS011;3465;42.144;24.722;2023-05-14T08:54:49;12.50;;;8.77;;
6852;SDS011;3465;42.144;24.722;2023-05-14T08:57:15;21.50;;;9.77;;
6852;SDS011;3465;42.144;24.722;2023-05-14T08:59:44;18.67;;;8.10;;
6852;SDS011;3465;42.144;24.722;2023-05-14T09:02:09;12.93;;;7.77;;
6852;SDS011;3465;42.144;24.722;2023-05-14T09:04:38;12.27;;;8.27;;
6852;SDS011;3465;42.144;24.722;2023-05-14T09:07:05;11.70;;;7.27;;
6852;SDS011;3465;42.144;24.722;2023-05-14T09:09:31;13.27;;;7.10;;
6852;SDS011;3465;42.144;24.722;2023-05-14T09:11:57;17.47;;;8.13;;
6852;SDS011;3465;42.144;24.722;2023-05-14T09:14:22;16.60;;;7.87;;
6852;SDS011;3465;42.144;24.722;2023-05-14T09:16:48;15.80;;;8.20;;
6852;SDS011;3465;42.144;24.722;2023-05-14T09:19:15;12.47;;;8.23;;
6852;SDS011;3465;42.144;24.722;2023-05-14T09:21:43;27.23;;;16.20;;
6852;SDS011;3465;42.144;24.722;2023-05-14T09:24:12;23.73;;;11.80;;
6852;SDS011;3465;42.144;24.722;2023-05-14T09:26:43;14.73;;;9.07;;
6852;SDS011;3465;42.144;24.722;2023-05-14T09:29:08;20.40;;;8.80;;
6852;SDS011;3465;42.144;24.722;2023-05-14T09:31:34;11.67;;;7.87;;
6852;SDS011;3465;42.144;24.722;2023-05-14T09:34:01;15.00;;;8.43;;
6852;SDS011;3465;42.144;24.722;2023-05-14T09:36:26;12.97;;;7.83;;
6852;SDS011;3465;42.144;24.722;2023-05-14T09:38:53;12.00;;;7.50;;
6852;SDS011;3465;42.144;24.722;2023-05-14T09:41:20;14.13;;;8.37;;
6852;SDS011;3465;42.144;24.722;2023-05-14T09:43:47;12.57;;;8.00;;
6852;SDS011;3465;42.144;24.722;2023-05-14T09:46:13;12.83;;;7.63;;
6852;SDS011;3465;42.144;24.722;2023-05-14T09:48:38;13.10;;;8.30;;
6852;SDS011;3465;42.144;24.722;2023-05-14T09:51:04;12.93;;;7.97;;
6852;SDS011;3465;42.144;24.722;2023-05-14T09:53:29;11.87;;;7.67;;
6852;SDS011;3465;42.144;24.722;2023-05-14T09:55:56;13.13;;;7.77;;
6852;SDS011;3465;42.144;24.722;2023-05-14T09:58:22;19.20;;;8.20;;
6852;SDS011;3465;42.144;24.722;2023-05-14T10:00:47;11.83;;;7.90;;
6852;SDS011;3465;42.144;24.722;2023-05-14T10:03:14;11.33;;;8.03;;
6852;SDS011;3465;42.144;24.722;2023-05-14T10:05:42;12.80;;;8.30;;
6852;SDS011;3465;42.144;24.722;2023-05-14T10:08:12;11.10;;;7.90;;
6852;SDS011;3465;42.144;24.722;2023-05-14T10:10:43;12.97;;;7.93;;
6852;SDS011;3465;42.144;24.722;2023-05-14T10:13:12;19.37;;;10.10;;
6852;SDS011;3465;42.144;24.722;2023-05-14T10:18:24;13.40;;;9.50;;
6852;SDS011;3465;42.144;24.722;2023-05-14T10:21:04;15.47;;;9.37;;
6852;SDS011;3465;42.144;24.722;2023-05-14T10:23:30;13.40;;;9.20;;
6852;SDS011;3465;42.144;24.722;2023-05-14T10:25:56;13.60;;;9.03;;
6852;SDS011;3465;42.144;24.722;2023-05-14T10:28:23;11.80;;;8.97;;
6852;SDS011;3465;42.144;24.722;2023-05-14T10:30:48;13.67;;;8.80;;
6852;SDS011;3465;42.144;24.722;2023-05-14T10:33:15;15.57;;;10.10;;
6852;SDS011;3465;42.144;24.722;2023-05-14T10:38:26;17.50;;;9.97;;
6852;SDS011;3465;42.144;24.722;2023-05-14T10:41:03;15.10;;;10.57;;
6852;SDS011;3465;42.144;24.722;2023-05-14T10:43:29;20.70;;;12.03;;
6852;SDS011;3465;42.144;24.722;2023-05-14T10:45:55;13.43;;;10.53;;
6852;SDS011;3465;42.144;24.722;2023-05-14T10:48:22;19.13;;;10.67;;
6852;SDS011;3465;42.144;24.722;2023-05-14T10:50:49;14.10;;;9.50;;
6852;SDS011;3465;42.144;24.722;2023-05-14T10:53:15;12.67;;;8.37;;
6852;SDS011;3465;42.144;24.722;2023-05-14T10:55:42;13.43;;;8.50;;
6852;SDS011;3465;42.144;24.722;2023-05-14T10:58:09;13.07;;;8.20;;
6852;SDS011;3465;42.144;24.722;2023-05-14T11:00:35;12.70;;;8.83;;
6852;SDS011;3465;42.144;24.722;2023-05-14T11:03:02;13.87;;;9.33;;
6852;SDS011;3465;42.144;24.722;2023-05-14T11:05:29;15.07;;;9.17;;
6852;SDS011;3465;42.144;24.722;2023-05-14T11:07:56;14.60;;;10.20;;
6852;SDS011;3465;42.144;24.722;2023-05-14T11:10:22;12.83;;;9.07;;
6852;SDS011;3465;42.144;24.722;2023-05-14T11:12:50;14.63;;;9.80;;
6852;SDS011;3465;42.144;24.722;2023-05-14T11:15:17;15.43;;;9.77;;
6852;SDS011;3465;42.144;24.722;2023-05-14T11:17:47;11.20;;;8.87;;
6852;SDS011;3465;42.144;24.722;2023-05-14T11:20:14;11.77;;;9.60;;
6852;SDS011;3465;42.144;24.722;2023-05-14T11:22:41;15.70;;;9.00;;
6852;SDS011;3465;42.144;24.722;2023-05-14T11:25:07;12.43;;;8.63;;
6852;SDS011;3465;42.144;24.722;2023-05-14T11:27:35;16.97;;;9.13;;
6852;SDS011;3465;42.144;24.722;2023-05-14T11:30:02;12.13;;;8.50;;
6852;SDS011;3465;42.144;24.722;2023-05-14T11:32:30;15.47;;;10.00;;
6852;SDS011;3465;42.144;24.722;2023-05-14T11:34:56;13.17;;;9.13;;
6852;SDS011;3465;42.144;24.722;2023-05-14T11:37:22;14.43;;;9.30;;
6852;SDS011;3465;42.144;24.722;2023-05-14T11:39:48;14.10;;;9.47;;
6852;SDS011;3465;42.144;24.722;2023-05-14T11:42:16;12.67;;;8.97;;
6852;SDS011;3465;42.144;24.722;2023-05-14T11:44:50;14.13;;;9.43;;
6852;SDS011;3465;42.144;24.722;2023-05-14T11:47:18;14.50;;;9.73;;
6852;SDS011;3465;42.144;24.722;2023-05-14T11:49:44;18.13;;;9.80;;
6852;SDS011;3465;42.144;24.722;2023-05-14T11:52:10;12.80;;;9.67;;
6852;SDS011;3465;42.144;24.722;2023-05-14T11:54:40;12.33;;;9.60;;
6852;SDS011;3465;42.144;24.722;2023-05-14T11:57:08;12.90;;;9.50;;
6852;SDS011;3465;42.144;24.722;2023-05-14T11:59:35;12.93;;;9.73;;
6852;SDS011;3465;42.144;24.722;2023-05-14T12:02:02;15.30;;;9.77;;
6852;SDS011;3465;42.144;24.722;2023-05-14T12:04:29;17.53;;;9.83;;
6852;SDS011;3465;42.144;24.722;2023-05-14T12:06:56;17.40;;;10.17;;
6852;SDS011;3465;42.144;24.722;2023-05-14T12:09:22;11.23;;;8.63;;
6852;SDS011;3465;42.144;24.722;2023-05-14T12:11:49;15.27;;;9.77;;
6852;SDS011;3465;42.144;24.722;2023-05-14T12:14:19;15.53;;;10.23;;
6852;SDS011;3465;42.144;24.722;2023-05-14T12:16:46;15.30;;;9.63;;
6852;SDS011;3465;42.144;24.722;2023-05-14T12:19:16;12.90;;;9.73;;
6852;SDS011;3465;42.144;24.722;2023-05-14T12:21:43;14.53;;;10.67;;
6852;SDS011;3465;42.144;24.722;2023-05-14T12:24:15;14.13;;;10.17;;
6852;SDS011;3465;42.144;24.722;2023-05-14T12:26:45;15.37;;;10.83;;
6852;SDS011;3465;42.144;24.722;2023-05-14T12:29:12;15.77;;;10.60;;
6852;SDS011;3465;42.144;24.722;2023-05-14T12:31:43;14.33;;;10.57;;
6852;SDS011;3465;42.144;24.722;2023-05-14T12:34:11;13.70;;;10.40;;
6852;SDS011;3465;42.144;24.722;2023-05-14T12:36:37;14.40;;;10.27;;
6852;SDS011;3465;42.144;24.722;2023-05-14T12:39:02;19.63;;;10.27;;
6852;SDS011;3465;42.144;24.722;2023-05-14T12:41:30;13.30;;;10.20;;
6852;SDS011;3465;42.144;24.722;2023-05-14T12:43:57;15.20;;;10.53;;
6852;SDS011;3465;42.144;24.722;2023-05-14T12:46:23;14.47;;;9.83;;
6852;SDS011;3465;42.144;24.722;2023-05-14T12:48:50;14.53;;;10.47;;
6852;SDS011;3465;42.144;24.722;2023-05-14T12:51:16;14.77;;;10.23;;
6852;SDS011;3465;42.144;24.722;2023-05-14T12:53:41;12.63;;;10.20;;
6852;SDS011;3465;42.144;24.722;2023-05-14T12:56:07;17.33;;;10.73;;
6852;SDS011;3465;42.144;24.722;2023-05-14T12:58:32;15.60;;;10.80;;
6852;SDS011;3465;42.144;24.722;2023-05-14T13:00:58;12.83;;;10.17;;
6852;SDS011;3465;42.144;24.722;2023-05-14T13:03:23;16.33;;;11.17;;
6852;SDS011;3465;42.144;24.722;2023-05-14T13:05:50;14.87;;;11.07;;
6852;SDS011;3465;42.144;24.722;2023-05-14T13:08:16;16.30;;;10.97;;
6852;SDS011;3465;42.144;24.722;2023-05-14T13:10:42;17.70;;;11.87;;
6852;SDS011;3465;42.144;24.722;2023-05-14T13:13:08;15.60;;;11.97;;
6852;SDS011;3465;42.144;24.722;2023-05-14T13:15:35;16.00;;;12.10;;
6852;SDS011;3465;42.144;24.722;2023-05-14T13:18:01;20.00;;;13.47;;
6852;SDS011;3465;42.144;24.722;2023-05-14T13:20:26;20.57;;;12.40;;
6852;SDS011;3465;42.144;24.722;2023-05-14T13:22:53;17.90;;;11.93;;
6852;SDS011;3465;42.144;24.722;2023-05-14T13:25:18;17.60;;;12.40;;
6852;SDS011;3465;42.144;24.722;2023-05-14T13:27:44;20.13;;;13.07;;
6852;SDS011;3465;42.144;24.722;2023-05-14T13:30:09;22.70;;;13.37;;
6852;SDS011;3465;42.144;24.722;2023-05-14T13:32:36;16.80;;;12.80;;
6852;SDS011;3465;42.144;24.722;2023-05-14T13:35:01;17.93;;;12.33;;
6852;SDS011;3465;42.144;24.722;2023-05-14T13:37:27;20.67;;;12.53;;
6852;SDS011;3465;42.144;24.722;2023-05-14T13:39:52;18.67;;;12.50;;
6852;SDS011;3465;42.144;24.722;2023-05-14T13:42:17;17.43;;;12.13;;
6852;SDS011;3465;42.144;24.722;2023-05-14T13:44:43;23.23;;;13.57;;
6852;SDS011;3465;42.144;24.722;2023-05-14T13:47:08;18.73;;;13.20;;
6852;SDS011;3465;42.144;24.722;2023-05-14T13:49:34;18.23;;;13.30;;
6852;SDS011;3465;42.144;24.722;2023-05-14T13:51:59;17.67;;;11.67;;
6852;SDS011;3465;42.144;24.722;2023-05-14T13:54:25;22.10;;;12.27;;
6852;SDS011;3465;42.144;24.722;2023-05-14T13:56:50;17.73;;;12.33;;
6852;SDS011;3465;42.144;24.722;2023-05-14T13:59:16;18.83;;;12.67;;
6852;SDS011;3465;42.144;24.722;2023-05-14T14:01:42;17.53;;;12.37;;
6852;SDS011;3465;42.144;24.722;2023-05-14T14:04:08;21.90;;;12.47;;
6852;SDS011;3465;42.144;24.722;2023-05-14T14:06:34;20.90;;;13.40;;
6852;SDS011;3465;42.144;24.722;2023-05-14T14:08:59;21.40;;;12.97;;
6852;SDS011;3465;42.144;24.722;2023-05-14T14:11:25;22.13;;;13.37;;
6852;SDS011;3465;42.144;24.722;2023-05-14T14:13:51;25.97;;;15.23;;
6852;SDS011;3465;42.144;24.722;2023-05-14T14:16:16;30.57;;;14.97;;
6852;SDS011;3465;42.144;24.722;2023-05-14T14:18:42;26.40;;;16.80;;
6852;SDS011;3465;42.144;24.722;2023-05-14T14:21:07;30.60;;;17.50;;
6852;SDS011;3465;42.144;24.722;2023-05-14T14:23:33;27.80;;;17.47;;
6852;SDS011;3465;42.144;24.722;2023-05-14T14:25:59;35.40;;;18.53;;
6852;SDS011;3465;42.144;24.722;2023-05-14T14:28:25;29.53;;;18.47;;
6852;SDS011;3465;42.144;24.722;2023-05-14T14:30:50;39.07;;;19.50;;
6852;SDS011;3465;42.144;24.722;2023-05-14T14:33:15;26.57;;;17.53;;
6852;SDS011;3465;42.144;24.722;2023-05-14T14:35:41;23.97;;;16.87;;
6852;SDS011;3465;42.144;24.722;2023-05-14T14:38:06;32.73;;;18.63;;
6852;SDS011;3465;42.144;24.722;2023-05-14T14:40:32;29.23;;;18.83;;
6852;SDS011;3465;42.144;24.722;2023-05-14T14:42:58;40.23;;;19.93;;
6852;SDS011;3465;42.144;24.722;2023-05-14T14:45:23;32.90;;;18.73;;
6852;SDS011;3465;42.144;24.722;2023-05-14T14:47:49;27.80;;;17.90;;
6852;SDS011;3465;42.144;24.722;2023-05-14T14:50:15;29.00;;;18.97;;
6852;SDS011;3465;42.144;24.722;2023-05-14T14:52:40;31.00;;;18.57;;
6852;SDS011;3465;42.144;24.722;2023-05-14T14:55:11;27.37;;;17.73;;
6852;SDS011;3465;42.144;24.722;2023-05-14T14:57:37;28.47;;;17.97;;